Main page
METAR-TAF:

METAR-TAF

Airports :

Angoulême – Cognac International Airport

Angoulême, France

latitude: 45-43-46N, longitude: 00-13-08E, elevation: 132 m

Current weather observation

The report was made 25 minutes ago, at 15:30 UTC
Wind 8 kt from the North/Northwest, varying between Northwest and North/Northeast
Temperature 16°C
Humidity 45%
Pressure 1018 hPa
Visibility 10 km or more
no clouds below 1500 m and no cumulonimbus

METAR: LFBU 281530Z AUTO 34008KT 320V020 CAVOK 16/04 Q1018

Time: 16:55 (15:55 UTC)

Forecast

The report was made 28 hours and 55 minutes ago, at 11:00 UTC
Forecast valid from 27 at 12 UTC to 28 at 12 UTC
Wind 10 kt from the North/Northeast
Visibility 10 km or more
no clouds below 1500 m and no cumulonimbus
Temporary
from 27 at 21 UTC to 28 at 06 UTC
Wind 2 kt from variable directions
Probability 40%
from 28 at 00 UTC to 28 at 06 UTC
Visibility: 4000 m
mist

TAF: LFBU 271100Z 2712/2812 03010KT CAVOK TEMPO 2721/2806 VRB02KT PROB40 2800/2806 4000 BR

Weather observations and forecasts of more than 4000 airports (METAR and TAF reports).

The available stations are represented by yellow and red dots on the map.

Hover mouse over dot to see the name of the station.

Then click to see weather observations and forecasts.

To change the map : click on the green buttons with a black cross to zoom in, on the green button with a dash to zoom out, or on the green arrows for adjacent maps.


METAR-TAF: